sensor_id;sensor_type;location;lat;lon;timestamp;temperature;humidity
78315;SHT31;68596;52.080;4.662;2023-07-20T00:01:29;19.93;73.06
78315;SHT31;68596;52.080;4.662;2023-07-20T00:04:14;19.88;72.79
78315;SHT31;68596;52.080;4.662;2023-07-20T00:06:58;19.83;73.13
78315;SHT31;68596;52.080;4.662;2023-07-20T00:09:45;19.81;73.35
78315;SHT31;68596;52.080;4.662;2023-07-20T00:12:29;19.77;73.33
78315;SHT31;68596;52.080;4.662;2023-07-20T00:15:13;19.77;73.31
78315;SHT31;68596;52.080;4.662;2023-07-20T00:17:57;19.72;72.94
78315;SHT31;68596;52.080;4.662;2023-07-20T00:20:42;19.68;73.09
78315;SHT31;68596;52.080;4.662;2023-07-20T00:23:26;19.65;73.06
78315;SHT31;68596;52.080;4.662;2023-07-20T00:26:10;19.62;72.99
78315;SHT31;68596;52.080;4.662;2023-07-20T00:28:54;19.58;73.29
78315;SHT31;68596;52.080;4.662;2023-07-20T00:31:38;19.58;73.62
78315;SHT31;68596;52.080;4.662;2023-07-20T00:34:22;19.55;73.55
78315;SHT31;68596;52.080;4.662;2023-07-20T00:37:06;19.48;73.57
78315;SHT31;68596;52.080;4.662;2023-07-20T00:39:51;19.51;73.29
78315;SHT31;68596;52.080;4.662;2023-07-20T00:42:35;19.47;73.30
78315;SHT31;68596;52.080;4.662;2023-07-20T00:45:19;19.44;73.24
78315;SHT31;68596;52.080;4.662;2023-07-20T00:48:04;19.41;73.43
78315;SHT31;68596;52.080;4.662;2023-07-20T00:50:50;19.38;73.17
78315;SHT31;68596;52.080;4.662;2023-07-20T00:53:35;19.34;73.41
78315;SHT31;68596;52.080;4.662;2023-07-20T00:56:20;19.32;73.29
78315;SHT31;68596;52.080;4.662;2023-07-20T00:59:04;19.30;73.34
78315;SHT31;68596;52.080;4.662;2023-07-20T01:01:48;19.26;73.25
78315;SHT31;68596;52.080;4.662;2023-07-20T01:04:35;19.27;73.48
78315;SHT31;68596;52.080;4.662;2023-07-20T01:07:32;19.24;73.48
78315;SHT31;68596;52.080;4.662;2023-07-20T01:13:09;19.24;73.47
78315;SHT31;68596;52.080;4.662;2023-07-20T01:15:57;19.21;73.15
78315;SHT31;68596;52.080;4.662;2023-07-20T01:18:44;19.14;73.23
78315;SHT31;68596;52.080;4.662;2023-07-20T01:21:37;19.11;73.46
78315;SHT31;68596;52.080;4.662;2023-07-20T01:24:51;19.08;73.38
78315;SHT31;68596;52.080;4.662;2023-07-20T01:33:41;18.94;73.30
78315;SHT31;68596;52.080;4.662;2023-07-20T01:36:29;18.90;73.29
78315;SHT31;68596;52.080;4.662;2023-07-20T01:39:14;18.87;73.28
78315;SHT31;68596;52.080;4.662;2023-07-20T01:41:59;18.83;73.38
78315;SHT31;68596;52.080;4.662;2023-07-20T01:44:44;18.79;73.03
78315;SHT31;68596;52.080;4.662;2023-07-20T01:47:28;18.76;73.68
78315;SHT31;68596;52.080;4.662;2023-07-20T01:50:13;18.70;73.67
78315;SHT31;68596;52.080;4.662;2023-07-20T01:52:57;18.69;73.73
78315;SHT31;68596;52.080;4.662;2023-07-20T01:55:41;18.62;73.60
78315;SHT31;68596;52.080;4.662;2023-07-20T01:58:25;18.62;73.53
78315;SHT31;68596;52.080;4.662;2023-07-20T02:01:09;18.59;73.59
78315;SHT31;68596;52.080;4.662;2023-07-20T02:03:53;18.57;73.48
78315;SHT31;68596;52.080;4.662;2023-07-20T02:06:38;18.56;73.64
78315;SHT31;68596;52.080;4.662;2023-07-20T02:09:22;18.53;73.68
78315;SHT31;68596;52.080;4.662;2023-07-20T02:12:06;18.52;73.87
78315;SHT31;68596;52.080;4.662;2023-07-20T02:14:50;18.48;73.89
78315;SHT31;68596;52.080;4.662;2023-07-20T02:17:35;18.43;73.80
78315;SHT31;68596;52.080;4.662;2023-07-20T02:20:19;18.45;73.84
78315;SHT31;68596;52.080;4.662;2023-07-20T02:23:03;18.43;73.62
78315;SHT31;68596;52.080;4.662;2023-07-20T02:25:47;18.39;73.57
78315;SHT31;68596;52.080;4.662;2023-07-20T02:28:31;18.42;73.27
78315;SHT31;68596;52.080;4.662;2023-07-20T02:31:16;18.36;73.56
78315;SHT31;68596;52.080;4.662;2023-07-20T02:34:00;18.36;73.84
78315;SHT31;68596;52.080;4.662;2023-07-20T02:36:44;18.35;73.85
78315;SHT31;68596;52.080;4.662;2023-07-20T02:39:30;18.35;73.77
78315;SHT31;68596;52.080;4.662;2023-07-20T02:42:14;18.32;73.35
78315;SHT31;68596;52.080;4.662;2023-07-20T02:44:58;18.31;73.33
78315;SHT31;68596;52.080;4.662;2023-07-20T02:47:42;18.26;73.19
78315;SHT31;68596;52.080;4.662;2023-07-20T02:50:27;18.24;73.39
78315;SHT31;68596;52.080;4.662;2023-07-20T02:53:10;18.25;73.38
78315;SHT31;68596;52.080;4.662;2023-07-20T02:55:55;18.24;73.41
78315;SHT31;68596;52.080;4.662;2023-07-20T02:58:41;18.25;73.74
78315;SHT31;68596;52.080;4.662;2023-07-20T03:01:27;18.21;73.86
78315;SHT31;68596;52.080;4.662;2023-07-20T03:04:13;18.22;73.83
78315;SHT31;68596;52.080;4.662;2023-07-20T03:06:57;18.18;73.95
78315;SHT31;68596;52.080;4.662;2023-07-20T03:09:41;18.18;73.90
78315;SHT31;68596;52.080;4.662;2023-07-20T03:12:25;18.18;74.30
78315;SHT31;68596;52.080;4.662;2023-07-20T03:15:10;18.12;74.18
78315;SHT31;68596;52.080;4.662;2023-07-20T03:17:54;18.08;74.54
78315;SHT31;68596;52.080;4.662;2023-07-20T03:20:38;18.01;74.58
78315;SHT31;68596;52.080;4.662;2023-07-20T03:23:22;18.01;74.62
78315;SHT31;68596;52.080;4.662;2023-07-20T03:26:07;18.01;75.06
78315;SHT31;68596;52.080;4.662;2023-07-20T03:28:54;18.00;74.79
78315;SHT31;68596;52.080;4.662;2023-07-20T03:31:38;17.94;74.83
78315;SHT31;68596;52.080;4.662;2023-07-20T03:34:22;17.94;75.04
78315;SHT31;68596;52.080;4.662;2023-07-20T03:37:06;17.91;74.74
78315;SHT31;68596;52.080;4.662;2023-07-20T03:39:50;17.87;74.82
78315;SHT31;68596;52.080;4.662;2023-07-20T03:42:34;17.84;75.09
78315;SHT31;68596;52.080;4.662;2023-07-20T03:45:20;17.75;75.36
78315;SHT31;68596;52.080;4.662;2023-07-20T03:48:04;17.73;75.50
78315;SHT31;68596;52.080;4.662;2023-07-20T03:50:51;17.67;75.34
78315;SHT31;68596;52.080;4.662;2023-07-20T03:53:36;17.60;75.45
78315;SHT31;68596;52.080;4.662;2023-07-20T03:56:20;17.59;75.72
78315;SHT31;68596;52.080;4.662;2023-07-20T03:59:05;17.57;75.29
78315;SHT31;68596;52.080;4.662;2023-07-20T04:01:49;17.57;75.07
78315;SHT31;68596;52.080;4.662;2023-07-20T04:04:33;17.61;75.04
78315;SHT31;68596;52.080;4.662;2023-07-20T04:07:17;17.63;75.60
78315;SHT31;68596;52.080;4.662;2023-07-20T04:10:01;17.60;75.21
78315;SHT31;68596;52.080;4.662;2023-07-20T04:12:45;17.59;75.09
78315;SHT31;68596;52.080;4.662;2023-07-20T04:15:31;17.61;75.02
78315;SHT31;68596;52.080;4.662;2023-07-20T04:18:16;17.67;75.29
78315;SHT31;68596;52.080;4.662;2023-07-20T04:21:00;17.67;74.83
78315;SHT31;68596;52.080;4.662;2023-07-20T04:23:44;17.70;75.53
78315;SHT31;68596;52.080;4.662;2023-07-20T04:26:29;17.68;75.30
78315;SHT31;68596;52.080;4.662;2023-07-20T04:29:13;17.67;75.84
78315;SHT31;68596;52.080;4.662;2023-07-20T04:31:57;17.68;75.65
78315;SHT31;68596;52.080;4.662;2023-07-20T04:34:42;17.67;75.95
78315;SHT31;68596;52.080;4.662;2023-07-20T04:37:26;17.64;76.12
78315;SHT31;68596;52.080;4.662;2023-07-20T04:40:11;17.66;76.19
78315;SHT31;68596;52.080;4.662;2023-07-20T04:42:55;17.67;76.46
78315;SHT31;68596;52.080;4.662;2023-07-20T04:45:39;17.68;76.51
78315;SHT31;68596;52.080;4.662;2023-07-20T04:48:23;17.70;76.76
78315;SHT31;68596;52.080;4.662;2023-07-20T04:51:07;17.71;75.91
78315;SHT31;68596;52.080;4.662;2023-07-20T04:53:51;17.75;76.20
78315;SHT31;68596;52.080;4.662;2023-07-20T04:56:36;17.82;76.38
78315;SHT31;68596;52.080;4.662;2023-07-20T04:59:20;17.90;76.70
78315;SHT31;68596;52.080;4.662;2023-07-20T05:02:04;17.95;76.67
78315;SHT31;68596;52.080;4.662;2023-07-20T05:04:48;18.00;76.01
78315;SHT31;68596;52.080;4.662;2023-07-20T05:07:32;18.02;76.15
78315;SHT31;68596;52.080;4.662;2023-07-20T05:10:17;18.08;76.43
78315;SHT31;68596;52.080;4.662;2023-07-20T05:13:01;18.13;76.08
78315;SHT31;68596;52.080;4.662;2023-07-20T05:15:45;18.16;75.66
78315;SHT31;68596;52.080;4.662;2023-07-20T05:18:30;18.15;75.99
78315;SHT31;68596;52.080;4.662;2023-07-20T05:21:16;18.22;75.77
78315;SHT31;68596;52.080;4.662;2023-07-20T05:24:00;18.24;75.80
78315;SHT31;68596;52.080;4.662;2023-07-20T05:26:44;18.21;75.59
78315;SHT31;68596;52.080;4.662;2023-07-20T05:29:28;18.24;75.56
78315;SHT31;68596;52.080;4.662;2023-07-20T05:32:12;18.22;75.67
78315;SHT31;68596;52.080;4.662;2023-07-20T05:34:57;18.24;75.72
78315;SHT31;68596;52.080;4.662;2023-07-20T05:37:41;18.22;75.45
78315;SHT31;68596;52.080;4.662;2023-07-20T05:40:25;18.25;75.02
78315;SHT31;68596;52.080;4.662;2023-07-20T05:43:10;18.24;75.21
78315;SHT31;68596;52.080;4.662;2023-07-20T05:45:55;18.24;74.97
78315;SHT31;68596;52.080;4.662;2023-07-20T05:48:39;18.26;74.72
78315;SHT31;68596;52.080;4.662;2023-07-20T05:51:23;18.29;74.71
78315;SHT31;68596;52.080;4.662;2023-07-20T05:54:07;18.31;74.39
78315;SHT31;68596;52.080;4.662;2023-07-20T05:56:52;18.33;74.63
78315;SHT31;68596;52.080;4.662;2023-07-20T05:59:37;18.33;74.61
78315;SHT31;68596;52.080;4.662;2023-07-20T06:02:22;18.39;74.12
78315;SHT31;68596;52.080;4.662;2023-07-20T06:05:07;18.45;74.28
78315;SHT31;68596;52.080;4.662;2023-07-20T06:07:55;18.51;74.09
78315;SHT31;68596;52.080;4.662;2023-07-20T06:10:41;18.55;73.76
78315;SHT31;68596;52.080;4.662;2023-07-20T06:13:25;18.57;73.40
78315;SHT31;68596;52.080;4.662;2023-07-20T06:16:10;18.60;73.60
78315;SHT31;68596;52.080;4.662;2023-07-20T06:18:54;18.63;73.16
78315;SHT31;68596;52.080;4.662;2023-07-20T06:21:38;18.67;72.39
78315;SHT31;68596;52.080;4.662;2023-07-20T06:24:23;18.72;71.13
78315;SHT31;68596;52.080;4.662;2023-07-20T06:27:07;18.77;71.49
78315;SHT31;68596;52.080;4.662;2023-07-20T06:29:51;18.82;70.99
78315;SHT31;68596;52.080;4.662;2023-07-20T06:32:35;18.89;70.76
78315;SHT31;68596;52.080;4.662;2023-07-20T06:35:19;18.92;70.70
78315;SHT31;68596;52.080;4.662;2023-07-20T06:38:03;19.00;70.34
78315;SHT31;68596;52.080;4.662;2023-07-20T06:40:48;19.03;70.21
78315;SHT31;68596;52.080;4.662;2023-07-20T06:43:32;19.07;70.13
78315;SHT31;68596;52.080;4.662;2023-07-20T06:46:16;19.08;70.21
78315;SHT31;68596;52.080;4.662;2023-07-20T06:49:00;19.13;70.09
78315;SHT31;68596;52.080;4.662;2023-07-20T06:51:44;19.14;69.78
78315;SHT31;68596;52.080;4.662;2023-07-20T06:54:30;19.14;68.95
78315;SHT31;68596;52.080;4.662;2023-07-20T06:57:14;19.17;68.94
78315;SHT31;68596;52.080;4.662;2023-07-20T06:59:59;19.20;69.02
78315;SHT31;68596;52.080;4.662;2023-07-20T07:02:44;19.23;69.12
78315;SHT31;68596;52.080;4.662;2023-07-20T07:05:28;19.26;69.20
78315;SHT31;68596;52.080;4.662;2023-07-20T07:08:12;19.30;68.94
78315;SHT31;68596;52.080;4.662;2023-07-20T07:10:56;19.30;68.68
78315;SHT31;68596;52.080;4.662;2023-07-20T07:13:40;19.35;68.05
78315;SHT31;68596;52.080;4.662;2023-07-20T07:16:24;19.35;68.26
78315;SHT31;68596;52.080;4.662;2023-07-20T07:19:09;19.37;68.50
78315;SHT31;68596;52.080;4.662;2023-07-20T07:21:53;19.35;68.53
78315;SHT31;68596;52.080;4.662;2023-07-20T07:24:37;19.39;67.65
78315;SHT31;68596;52.080;4.662;2023-07-20T07:27:21;19.37;67.36
78315;SHT31;68596;52.080;4.662;2023-07-20T07:30:06;19.44;66.85
78315;SHT31;68596;52.080;4.662;2023-07-20T07:32:50;19.45;66.28
78315;SHT31;68596;52.080;4.662;2023-07-20T07:35:34;19.44;67.47
78315;SHT31;68596;52.080;4.662;2023-07-20T07:38:19;19.44;67.78
78315;SHT31;68596;52.080;4.662;2023-07-20T07:41:03;19.51;68.45
78315;SHT31;68596;52.080;4.662;2023-07-20T07:43:47;19.55;68.70
78315;SHT31;68596;52.080;4.662;2023-07-20T07:46:31;19.59;68.60
78315;SHT31;68596;52.080;4.662;2023-07-20T07:49:16;19.65;68.18
78315;SHT31;68596;52.080;4.662;2023-07-20T07:52:01;19.68;68.56
78315;SHT31;68596;52.080;4.662;2023-07-20T07:54:46;19.71;68.73
78315;SHT31;68596;52.080;4.662;2023-07-20T07:57:30;19.75;67.49
78315;SHT31;68596;52.080;4.662;2023-07-20T08:00:14;19.77;68.42
78315;SHT31;68596;52.080;4.662;2023-07-20T08:03:02;19.79;67.93
78315;SHT31;68596;52.080;4.662;2023-07-20T08:05:46;19.83;67.87
78315;SHT31;68596;52.080;4.662;2023-07-20T08:08:32;19.86;68.39
78315;SHT31;68596;52.080;4.662;2023-07-20T08:11:16;19.88;66.56
78315;SHT31;68596;52.080;4.662;2023-07-20T08:14:01;19.89;67.12
78315;SHT31;68596;52.080;4.662;2023-07-20T08:16:46;19.88;66.06
78315;SHT31;68596;52.080;4.662;2023-07-20T08:19:31;19.89;66.59
78315;SHT31;68596;52.080;4.662;2023-07-20T08:22:16;19.95;64.77
78315;SHT31;68596;52.080;4.662;2023-07-20T08:25:00;19.95;64.13
78315;SHT31;68596;52.080;4.662;2023-07-20T08:27:44;19.90;64.76
78315;SHT31;68596;52.080;4.662;2023-07-20T08:30:48;19.89;64.57
78315;SHT31;68596;52.080;4.662;2023-07-20T08:33:32;19.92;66.00
78315;SHT31;68596;52.080;4.662;2023-07-20T08:36:17;19.90;65.78
78315;SHT31;68596;52.080;4.662;2023-07-20T08:39:02;19.88;65.58
78315;SHT31;68596;52.080;4.662;2023-07-20T08:41:48;19.86;65.69
78315;SHT31;68596;52.080;4.662;2023-07-20T08:44:33;19.83;65.02
78315;SHT31;68596;52.080;4.662;2023-07-20T08:47:20;19.86;65.07
78315;SHT31;68596;52.080;4.662;2023-07-20T08:50:05;19.90;65.52
78315;SHT31;68596;52.080;4.662;2023-07-20T08:52:52;19.92;65.06
78315;SHT31;68596;52.080;4.662;2023-07-20T08:55:39;19.96;65.83
78315;SHT31;68596;52.080;4.662;2023-07-20T08:58:23;19.99;66.23
78315;SHT31;68596;52.080;4.662;2023-07-20T09:01:11;20.02;66.17
78315;SHT31;68596;52.080;4.662;2023-07-20T09:03:55;20.13;65.36
78315;SHT31;68596;52.080;4.662;2023-07-20T09:06:40;20.15;65.42
78315;SHT31;68596;52.080;4.662;2023-07-20T09:09:24;20.18;65.65
78315;SHT31;68596;52.080;4.662;2023-07-20T09:12:16;20.19;65.91
78315;SHT31;68596;52.080;4.662;2023-07-20T09:15:00;20.20;65.98
78315;SHT31;68596;52.080;4.662;2023-07-20T09:17:51;20.25;65.79
78315;SHT31;68596;52.080;4.662;2023-07-20T09:20:38;20.26;65.85
78315;SHT31;68596;52.080;4.662;2023-07-20T09:23:36;20.29;65.61
78315;SHT31;68596;52.080;4.662;2023-07-20T09:26:20;20.36;65.44
78315;SHT31;68596;52.080;4.662;2023-07-20T09:29:07;20.41;64.88
78315;SHT31;68596;52.080;4.662;2023-07-20T09:32:00;20.39;65.26
78315;SHT31;68596;52.080;4.662;2023-07-20T09:34:49;20.44;65.02
78315;SHT31;68596;52.080;4.662;2023-07-20T09:37:34;20.54;64.68
78315;SHT31;68596;52.080;4.662;2023-07-20T09:40:19;20.57;65.67
78315;SHT31;68596;52.080;4.662;2023-07-20T09:43:08;20.63;64.93
78315;SHT31;68596;52.080;4.662;2023-07-20T09:45:58;20.69;64.75
78315;SHT31;68596;52.080;4.662;2023-07-20T09:48:54;20.69;64.83
78315;SHT31;68596;52.080;4.662;2023-07-20T09:51:38;20.73;63.63
78315;SHT31;68596;52.080;4.662;2023-07-20T09:54:24;20.77;63.95
78315;SHT31;68596;52.080;4.662;2023-07-20T09:57:08;20.79;63.60
78315;SHT31;68596;52.080;4.662;2023-07-20T09:59:52;20.81;62.28
78315;SHT31;68596;52.080;4.662;2023-07-20T10:02:42;20.85;62.16
78315;SHT31;68596;52.080;4.662;2023-07-20T10:05:34;20.84;61.10
78315;SHT31;68596;52.080;4.662;2023-07-20T10:08:26;20.87;62.28
78315;SHT31;68596;52.080;4.662;2023-07-20T10:11:13;20.91;61.95
78315;SHT31;68596;52.080;4.662;2023-07-20T10:14:03;20.95;62.71
78315;SHT31;68596;52.080;4.662;2023-07-20T10:16:51;20.97;62.71
78315;SHT31;68596;52.080;4.662;2023-07-20T10:19:43;21.00;62.86
78315;SHT31;68596;52.080;4.662;2023-07-20T10:22:35;21.11;63.09
78315;SHT31;68596;52.080;4.662;2023-07-20T10:25:24;21.14;63.09
78315;SHT31;68596;52.080;4.662;2023-07-20T10:28:10;21.14;61.49
78315;SHT31;68596;52.080;4.662;2023-07-20T10:30:54;21.11;62.93
78315;SHT31;68596;52.080;4.662;2023-07-20T10:33:40;21.11;62.86
78315;SHT31;68596;52.080;4.662;2023-07-20T10:36:28;21.08;63.68
78315;SHT31;68596;52.080;4.662;2023-07-20T10:39:23;21.04;62.46
78315;SHT31;68596;52.080;4.662;2023-07-20T10:42:12;21.08;61.82
78315;SHT31;68596;52.080;4.662;2023-07-20T10:44:56;21.17;62.20
78315;SHT31;68596;52.080;4.662;2023-07-20T10:47:46;21.18;62.44
78315;SHT31;68596;52.080;4.662;2023-07-20T10:50:30;21.24;63.02
78315;SHT31;68596;52.080;4.662;2023-07-20T10:53:17;21.32;60.33
78315;SHT31;68596;52.080;4.662;2023-07-20T10:56:13;21.39;62.29
78315;SHT31;68596;52.080;4.662;2023-07-20T10:59:01;21.46;60.53
78315;SHT31;68596;52.080;4.662;2023-07-20T11:02:06;21.48;60.61
78315;SHT31;68596;52.080;4.662;2023-07-20T11:04:50;21.59;60.25
78315;SHT31;68596;52.080;4.662;2023-07-20T11:07:38;21.69;60.29
78315;SHT31;68596;52.080;4.662;2023-07-20T11:10:23;21.75;60.76
78315;SHT31;68596;52.080;4.662;2023-07-20T11:13:20;21.81;59.78
78315;SHT31;68596;52.080;4.662;2023-07-20T11:16:05;21.90;58.78
78315;SHT31;68596;52.080;4.662;2023-07-20T11:18:50;22.05;55.20
78315;SHT31;68596;52.080;4.662;2023-07-20T11:21:37;22.16;54.79
78315;SHT31;68596;52.080;4.662;2023-07-20T11:24:22;22.17;56.97
78315;SHT31;68596;52.080;4.662;2023-07-20T11:27:06;22.14;58.38
78315;SHT31;68596;52.080;4.662;2023-07-20T11:29:50;22.21;58.40
78315;SHT31;68596;52.080;4.662;2023-07-20T11:32:34;22.20;58.57
78315;SHT31;68596;52.080;4.662;2023-07-20T11:35:18;22.23;58.77
78315;SHT31;68596;52.080;4.662;2023-07-20T11:38:02;22.26;58.34
78315;SHT31;68596;52.080;4.662;2023-07-20T11:40:46;22.17;57.89
78315;SHT31;68596;52.080;4.662;2023-07-20T11:43:31;22.24;58.84
78315;SHT31;68596;52.080;4.662;2023-07-20T11:46:15;22.33;57.80
78315;SHT31;68596;52.080;4.662;2023-07-20T11:49:00;22.41;58.39
78315;SHT31;68596;52.080;4.662;2023-07-20T11:51:45;22.50;58.12
78315;SHT31;68596;52.080;4.662;2023-07-20T11:54:30;22.56;57.00
78315;SHT31;68596;52.080;4.662;2023-07-20T11:57:18;22.48;57.40
78315;SHT31;68596;52.080;4.662;2023-07-20T12:00:03;22.48;57.12
78315;SHT31;68596;52.080;4.662;2023-07-20T12:02:53;22.51;57.44
78315;SHT31;68596;52.080;4.662;2023-07-20T12:05:38;22.57;57.69
78315;SHT31;68596;52.080;4.662;2023-07-20T12:08:23;22.68;57.05
78315;SHT31;68596;52.080;4.662;2023-07-20T12:11:07;22.72;57.48
78315;SHT31;68596;52.080;4.662;2023-07-20T12:13:52;22.86;56.21
78315;SHT31;68596;52.080;4.662;2023-07-20T12:16:41;22.91;56.71
78315;SHT31;68596;52.080;4.662;2023-07-20T12:19:25;23.01;56.86
78315;SHT31;68596;52.080;4.662;2023-07-20T12:22:09;23.07;56.37
78315;SHT31;68596;52.080;4.662;2023-07-20T12:24:55;23.07;55.35
78315;SHT31;68596;52.080;4.662;2023-07-20T12:27:39;23.04;56.09
78315;SHT31;68596;52.080;4.662;2023-07-20T12:30:25;22.92;57.37
78315;SHT31;68596;52.080;4.662;2023-07-20T12:33:09;22.94;56.68
78315;SHT31;68596;52.080;4.662;2023-07-20T12:35:54;23.04;53.67
78315;SHT31;68596;52.080;4.662;2023-07-20T12:38:40;23.07;54.96
78315;SHT31;68596;52.080;4.662;2023-07-20T12:41:25;23.14;54.82
78315;SHT31;68596;52.080;4.662;2023-07-20T12:44:09;23.15;55.03
78315;SHT31;68596;52.080;4.662;2023-07-20T12:46:53;23.16;54.65
78315;SHT31;68596;52.080;4.662;2023-07-20T12:49:37;23.22;54.61
78315;SHT31;68596;52.080;4.662;2023-07-20T12:52:21;23.26;54.36
78315;SHT31;68596;52.080;4.662;2023-07-20T12:55:07;23.19;55.63
78315;SHT31;68596;52.080;4.662;2023-07-20T12:57:52;23.23;54.26
78315;SHT31;68596;52.080;4.662;2023-07-20T13:00:36;23.31;54.42
78315;SHT31;68596;52.080;4.662;2023-07-20T13:03:21;23.29;55.14
78315;SHT31;68596;52.080;4.662;2023-07-20T13:06:05;23.31;52.96
78315;SHT31;68596;52.080;4.662;2023-07-20T13:08:49;23.29;53.60
78315;SHT31;68596;52.080;4.662;2023-07-20T13:11:34;23.28;54.17
78315;SHT31;68596;52.080;4.662;2023-07-20T13:14:19;23.25;54.66
78315;SHT31;68596;52.080;4.662;2023-07-20T13:17:03;23.25;53.49
78315;SHT31;68596;52.080;4.662;2023-07-20T13:19:47;23.23;54.35
78315;SHT31;68596;52.080;4.662;2023-07-20T13:22:31;23.22;53.83
78315;SHT31;68596;52.080;4.662;2023-07-20T13:25:16;23.18;53.81
78315;SHT31;68596;52.080;4.662;2023-07-20T13:28:00;23.12;54.11
78315;SHT31;68596;52.080;4.662;2023-07-20T13:30:44;23.08;53.90
78315;SHT31;68596;52.080;4.662;2023-07-20T13:33:29;23.09;53.77
78315;SHT31;68596;52.080;4.662;2023-07-20T13:36:14;23.08;53.39
78315;SHT31;68596;52.080;4.662;2023-07-20T13:38:58;23.08;54.80
78315;SHT31;68596;52.080;4.662;2023-07-20T13:41:42;23.08;53.79
78315;SHT31;68596;52.080;4.662;2023-07-20T13:44:26;23.08;53.79
78315;SHT31;68596;52.080;4.662;2023-07-20T13:47:10;23.11;54.02
78315;SHT31;68596;52.080;4.662;2023-07-20T13:49:54;23.14;53.74
78315;SHT31;68596;52.080;4.662;2023-07-20T13:52:38;23.15;53.07
78315;SHT31;68596;52.080;4.662;2023-07-20T13:55:22;23.18;52.98
78315;SHT31;68596;52.080;4.662;2023-07-20T13:58:07;23.18;53.81
78315;SHT31;68596;52.080;4.662;2023-07-20T14:00:51;23.18;53.34
78315;SHT31;68596;52.080;4.662;2023-07-20T14:03:35;23.25;54.06
78315;SHT31;68596;52.080;4.662;2023-07-20T14:06:19;23.26;52.62
78315;SHT31;68596;52.080;4.662;2023-07-20T14:09:03;23.31;51.30
78315;SHT31;68596;52.080;4.662;2023-07-20T14:11:47;23.29;52.97
78315;SHT31;68596;52.080;4.662;2023-07-20T14:14:31;23.23;53.74
78315;SHT31;68596;52.080;4.662;2023-07-20T14:17:16;23.23;52.17
78315;SHT31;68596;52.080;4.662;2023-07-20T14:20:00;23.19;52.86
78315;SHT31;68596;52.080;4.662;2023-07-20T14:22:44;23.16;51.48
78315;SHT31;68596;52.080;4.662;2023-07-20T14:25:28;23.16;52.50
78315;SHT31;68596;52.080;4.662;2023-07-20T14:28:12;23.15;52.31
78315;SHT31;68596;52.080;4.662;2023-07-20T14:30:57;23.11;50.37
78315;SHT31;68596;52.080;4.662;2023-07-20T14:33:41;23.07;53.14
78315;SHT31;68596;52.080;4.662;2023-07-20T14:36:26;23.05;51.83
78315;SHT31;68596;52.080;4.662;2023-07-20T14:39:10;22.99;51.41
78315;SHT31;68596;52.080;4.662;2023-07-20T14:41:54;22.92;52.31
78315;SHT31;68596;52.080;4.662;2023-07-20T14:44:39;22.87;52.65
78315;SHT31;68596;52.080;4.662;2023-07-20T14:47:23;22.84;50.30
78315;SHT31;68596;52.080;4.662;2023-07-20T14:50:08;22.79;51.35
78315;SHT31;68596;52.080;4.662;2023-07-20T14:52:52;22.74;53.48
78315;SHT31;68596;52.080;4.662;2023-07-20T14:55:36;22.69;54.86
78315;SHT31;68596;52.080;4.662;2023-07-20T14:58:20;22.71;52.65
78315;SHT31;68596;52.080;4.662;2023-07-20T15:01:05;22.67;55.00
78315;SHT31;68596;52.080;4.662;2023-07-20T15:03:49;22.64;55.13
78315;SHT31;68596;52.080;4.662;2023-07-20T15:06:36;22.67;54.33
78315;SHT31;68596;52.080;4.662;2023-07-20T15:09:20;22.64;54.58
78315;SHT31;68596;52.080;4.662;2023-07-20T15:12:05;22.64;55.07
78315;SHT31;68596;52.080;4.662;2023-07-20T15:15:09;22.60;52.52
78315;SHT31;68596;52.080;4.662;2023-07-20T15:17:53;22.58;54.25
78315;SHT31;68596;52.080;4.662;2023-07-20T15:20:38;22.57;55.80
78315;SHT31;68596;52.080;4.662;2023-07-20T15:23:22;22.54;51.77
78315;SHT31;68596;52.080;4.662;2023-07-20T15:26:06;22.50;53.88
78315;SHT31;68596;52.080;4.662;2023-07-20T15:28:51;22.50;54.80
78315;SHT31;68596;52.080;4.662;2023-07-20T15:31:35;22.47;55.80
78315;SHT31;68596;52.080;4.662;2023-07-20T15:34:20;22.47;55.35
78315;SHT31;68596;52.080;4.662;2023-07-20T15:37:04;22.50;55.72
78315;SHT31;68596;52.080;4.662;2023-07-20T15:39:50;22.44;55.40
78315;SHT31;68596;52.080;4.662;2023-07-20T15:42:34;22.47;56.15
78315;SHT31;68596;52.080;4.662;2023-07-20T15:45:18;22.44;56.23
78315;SHT31;68596;52.080;4.662;2023-07-20T15:48:02;22.46;55.98
78315;SHT31;68596;52.080;4.662;2023-07-20T15:50:46;22.43;56.42
78315;SHT31;68596;52.080;4.662;2023-07-20T15:53:30;22.43;56.64
78315;SHT31;68596;52.080;4.662;2023-07-20T15:56:14;22.40;56.14
78315;SHT31;68596;52.080;4.662;2023-07-20T15:58:58;22.41;56.61
78315;SHT31;68596;52.080;4.662;2023-07-20T16:01:43;22.37;56.82
78315;SHT31;68596;52.080;4.662;2023-07-20T16:04:27;22.37;55.60
78315;SHT31;68596;52.080;4.662;2023-07-20T16:07:11;22.39;56.19
78315;SHT31;68596;52.080;4.662;2023-07-20T16:09:55;22.35;54.65
78315;SHT31;68596;52.080;4.662;2023-07-20T16:12:44;22.37;54.57
78315;SHT31;68596;52.080;4.662;2023-07-20T16:15:29;22.35;55.98
78315;SHT31;68596;52.080;4.662;2023-07-20T16:18:13;22.33;55.36
78315;SHT31;68596;52.080;4.662;2023-07-20T16:20:57;22.30;52.33
78315;SHT31;68596;52.080;4.662;2023-07-20T16:23:43;22.32;53.22
78315;SHT31;68596;52.080;4.662;2023-07-20T16:26:27;22.29;53.90
78315;SHT31;68596;52.080;4.662;2023-07-20T16:29:11;22.29;52.18
78315;SHT31;68596;52.080;4.662;2023-07-20T16:31:55;22.27;53.70
78315;SHT31;68596;52.080;4.662;2023-07-20T16:34:39;22.24;50.30
78315;SHT31;68596;52.080;4.662;2023-07-20T16:37:23;22.18;52.30
78315;SHT31;68596;52.080;4.662;2023-07-20T16:40:08;22.12;54.23
78315;SHT31;68596;52.080;4.662;2023-07-20T16:42:55;22.12;53.59
78315;SHT31;68596;52.080;4.662;2023-07-20T16:45:40;22.09;54.85
78315;SHT31;68596;52.080;4.662;2023-07-20T16:48:25;22.10;55.31
78315;SHT31;68596;52.080;4.662;2023-07-20T16:51:09;22.10;52.66
78315;SHT31;68596;52.080;4.662;2023-07-20T16:53:54;22.12;55.52
78315;SHT31;68596;52.080;4.662;2023-07-20T16:56:38;22.09;55.62
78315;SHT31;68596;52.080;4.662;2023-07-20T16:59:24;22.09;54.20
78315;SHT31;68596;52.080;4.662;2023-07-20T17:02:08;22.10;55.19
78315;SHT31;68596;52.080;4.662;2023-07-20T17:04:52;22.09;53.41
78315;SHT31;68596;52.080;4.662;2023-07-20T17:07:37;22.07;54.72
78315;SHT31;68596;52.080;4.662;2023-07-20T17:10:24;22.07;54.20
78315;SHT31;68596;52.080;4.662;2023-07-20T17:13:08;22.06;55.27
78315;SHT31;68596;52.080;4.662;2023-07-20T17:15:54;22.06;55.81
78315;SHT31;68596;52.080;4.662;2023-07-20T17:18:38;22.05;56.43
78315;SHT31;68596;52.080;4.662;2023-07-20T17:21:22;22.03;55.98
78315;SHT31;68596;52.080;4.662;2023-07-20T17:24:07;22.05;55.39
78315;SHT31;68596;52.080;4.662;2023-07-20T17:26:52;22.05;56.59
78315;SHT31;68596;52.080;4.662;2023-07-20T17:29:36;22.02;54.99
78315;SHT31;68596;52.080;4.662;2023-07-20T17:32:21;22.02;54.56